createdAt,value
2024-05-09T00:00:35.773Z,4.80
2024-05-09T00:03:10.400Z,4.93
2024-05-09T00:05:38.725Z,5.03
2024-05-09T00:08:06.563Z,5.00
2024-05-09T00:10:37.128Z,5.03
2024-05-09T00:13:07.059Z,5.15
2024-05-09T00:15:34.726Z,5.32
2024-05-09T00:18:02.142Z,4.65
2024-05-09T00:20:36.977Z,5.22
2024-05-09T00:23:07.485Z,5.40
2024-05-09T00:25:34.875Z,5.88
2024-05-09T00:28:01.667Z,4.88
2024-05-09T00:30:34.129Z,4.70
2024-05-09T00:33:04.642Z,4.90
2024-05-09T00:35:32.278Z,4.70
2024-05-09T00:37:59.082Z,5.18
2024-05-09T00:40:35.528Z,4.95
2024-05-09T00:43:06.922Z,5.50
2024-05-09T00:45:34.652Z,5.13
2024-05-09T00:48:04.835Z,5.40
2024-05-09T00:50:36.611Z,5.18
2024-05-09T00:53:06.338Z,6.13
2024-05-09T00:55:34.434Z,5.18
2024-05-09T00:58:01.957Z,5.07
2024-05-09T01:00:35.971Z,5.20
2024-05-09T01:03:06.441Z,5.07
2024-05-09T01:05:34.632Z,5.13
2024-05-09T01:08:02.339Z,5.20
2024-05-09T01:10:34.322Z,5.43
2024-05-09T01:13:03.788Z,4.67
2024-05-09T01:15:30.511Z,4.60
2024-05-09T01:17:58.091Z,4.63
2024-05-09T01:20:36.489Z,4.90
2024-05-09T01:23:09.381Z,4.55
2024-05-09T01:25:36.411Z,4.70
2024-05-09T01:28:03.009Z,5.20
2024-05-09T01:30:34.769Z,4.80
2024-05-09T01:33:04.853Z,4.95
2024-05-09T01:35:32.115Z,5.10
2024-05-09T01:37:58.706Z,4.77
2024-05-09T01:40:35.396Z,5.10
2024-05-09T01:43:04.913Z,4.93
2024-05-09T01:45:31.515Z,4.55
2024-05-09T01:47:58.673Z,5.30
2024-05-09T01:50:37.184Z,4.37
2024-05-09T01:53:07.531Z,3.58
2024-05-09T01:55:34.267Z,3.50
2024-05-09T01:58:00.888Z,4.00
2024-05-09T02:00:37.409Z,4.10
2024-05-09T02:03:11.273Z,4.40
2024-05-09T02:05:40.281Z,4.65
2024-05-09T02:08:07.484Z,4.20
2024-05-09T02:10:34.098Z,4.60
2024-05-09T02:13:00.949Z,4.80
2024-05-09T02:15:27.711Z,5.07
2024-05-09T02:17:54.492Z,5.32
2024-05-09T02:20:30.226Z,5.20
2024-05-09T02:23:03.589Z,5.80
2024-05-09T02:25:30.545Z,5.80
2024-05-09T02:27:57.248Z,6.03
2024-05-09T02:30:31.031Z,5.85
2024-05-09T02:33:05.942Z,5.60
2024-05-09T02:35:32.931Z,5.97
2024-05-09T02:37:59.824Z,5.88
2024-05-09T02:40:35.467Z,4.90
2024-05-09T02:43:04.911Z,4.68
2024-05-09T02:45:31.460Z,4.55
2024-05-09T02:47:58.299Z,3.80
2024-05-09T02:50:33.688Z,3.97
2024-05-09T02:53:05.088Z,4.20
2024-05-09T02:55:31.914Z,4.43
2024-05-09T02:57:58.469Z,4.22
2024-05-09T03:00:34.253Z,4.15
2024-05-09T03:03:06.117Z,4.53
2024-05-09T03:05:33.394Z,4.63
2024-05-09T03:08:00.101Z,4.88
2024-05-09T03:10:29.096Z,5.50
2024-05-09T03:13:05.954Z,4.47
2024-05-09T03:15:32.992Z,4.57
2024-05-09T03:18:00.914Z,4.43
2024-05-09T03:20:33.364Z,4.57
2024-05-09T03:23:02.293Z,4.32
2024-05-09T03:25:28.995Z,4.30
2024-05-09T03:27:55.675Z,4.10
2024-05-09T03:30:31.105Z,3.73
2024-05-09T03:33:10.505Z,3.42
2024-05-09T03:35:37.753Z,4.03
2024-05-09T03:38:04.595Z,3.83
2024-05-09T03:40:31.468Z,3.90
2024-05-09T03:42:58.751Z,4.53
2024-05-09T03:45:25.475Z,4.85
2024-05-09T03:47:52.673Z,4.50
2024-05-09T03:50:29.435Z,4.25
2024-05-09T03:53:01.003Z,3.85
2024-05-09T03:55:27.855Z,4.50
2024-05-09T03:57:54.405Z,4.65
2024-05-09T04:00:30.503Z,4.20
2024-05-09T04:03:02.859Z,3.70
2024-05-09T04:05:30.779Z,4.00
2024-05-09T04:07:57.769Z,3.90
2024-05-09T04:10:31.235Z,3.85
2024-05-09T04:13:00.491Z,4.07
2024-05-09T04:15:27.039Z,3.97
2024-05-09T04:17:53.772Z,4.30
2024-05-09T04:20:29.377Z,4.23
2024-05-09T04:23:04.239Z,4.95
2024-05-09T04:25:32.025Z,4.72
2024-05-09T04:27:58.563Z,6.07
2024-05-09T04:30:34.588Z,5.25
2024-05-09T04:33:06.417Z,4.90
2024-05-09T04:35:33.815Z,4.82
2024-05-09T04:38:00.592Z,5.43
2024-05-09T04:40:33.179Z,5.07
2024-05-09T04:43:02.875Z,5.63
2024-05-09T04:45:29.399Z,6.17
2024-05-09T04:47:56.067Z,6.00
2024-05-09T04:50:30.297Z,6.18
2024-05-09T04:53:03.183Z,6.18
2024-05-09T04:55:29.904Z,5.72
2024-05-09T04:57:56.414Z,5.73
2024-05-09T05:00:32.310Z,5.53
2024-05-09T05:03:08.391Z,5.68
2024-05-09T05:05:42.288Z,6.25
2024-05-09T05:08:17.770Z,6.63
2024-05-09T05:10:46.057Z,5.63
2024-05-09T05:13:20.776Z,6.30
2024-05-09T05:15:57.367Z,6.78
2024-05-09T05:18:26.119Z,7.07
2024-05-09T05:20:53.094Z,6.90
2024-05-09T05:23:20.657Z,7.90
2024-05-09T05:25:48.774Z,6.97
2024-05-09T05:28:16.331Z,7.88
2024-05-09T05:30:43.178Z,6.88
2024-05-09T05:33:11.095Z,7.13
2024-05-09T05:35:38.049Z,6.83
2024-05-09T05:38:06.296Z,7.38
2024-05-09T05:40:37.019Z,7.15
2024-05-09T05:43:08.861Z,7.32
2024-05-09T05:45:35.750Z,8.07
2024-05-09T05:48:07.344Z,8.20
2024-05-09T05:50:37.198Z,8.32
2024-05-09T05:53:08.859Z,9.27
2024-05-09T05:55:36.711Z,8.65
2024-05-09T05:58:03.406Z,8.82
2024-05-09T06:00:37.564Z,8.67
2024-05-09T06:03:06.494Z,8.85
2024-05-09T06:05:33.284Z,9.63
2024-05-09T06:08:00.246Z,9.70
2024-05-09T06:10:36.971Z,9.55
2024-05-09T06:13:06.265Z,9.33
2024-05-09T06:15:32.795Z,9.90
2024-05-09T06:17:59.576Z,10.35
2024-05-09T06:20:34.730Z,10.10
2024-05-09T06:23:04.139Z,10.32
2024-05-09T06:25:30.758Z,10.40
2024-05-09T06:27:57.278Z,10.35
2024-05-09T06:30:35.050Z,10.10
2024-05-09T06:33:06.968Z,10.77
2024-05-09T06:35:34.217Z,10.70
2024-05-09T06:38:01.214Z,11.83
2024-05-09T06:40:36.294Z,11.15
2024-05-09T06:43:10.160Z,11.05
2024-05-09T06:45:37.029Z,10.55
2024-05-09T06:48:03.961Z,9.75
2024-05-09T06:50:36.853Z,9.80
2024-05-09T06:53:04.907Z,10.70
2024-05-09T06:55:31.512Z,10.60
2024-05-09T06:57:58.030Z,10.32
2024-05-09T07:00:30.897Z,9.50
2024-05-09T07:03:16.675Z,9.80
2024-05-09T07:05:45.850Z,9.95
2024-05-09T07:08:13.175Z,9.88
2024-05-09T07:10:41.078Z,9.45
2024-05-09T07:13:09.748Z,9.05
2024-05-09T07:15:36.283Z,9.00
2024-05-09T07:18:17.808Z,8.80
2024-05-09T07:20:45.982Z,9.43
2024-05-09T07:23:13.264Z,8.30
2024-05-09T07:25:41.260Z,9.40
2024-05-09T07:28:18.699Z,8.43
2024-05-09T07:30:45.701Z,8.48
2024-05-09T07:33:20.200Z,8.52
2024-05-09T07:35:48.164Z,8.40
2024-05-09T07:38:14.944Z,9.15
2024-05-09T07:40:41.746Z,9.20
2024-05-09T07:43:11.538Z,9.27
2024-05-09T07:45:48.505Z,9.77
2024-05-09T07:52:37.535Z,8.27
2024-05-09T07:53:47.889Z,9.13
2024-05-09T07:56:18.590Z,7.68
2024-05-09T07:58:46.150Z,8.43
2024-05-09T08:01:12.984Z,7.75
2024-05-09T08:03:39.859Z,7.72
2024-05-09T08:06:06.477Z,7.40
2024-05-09T08:08:32.978Z,7.45
2024-05-09T08:10:59.535Z,6.30
2024-05-09T08:13:26.066Z,6.68
2024-05-09T08:15:53.690Z,7.07
2024-05-09T08:18:20.417Z,6.40
2024-05-09T08:20:48.845Z,4.93
2024-05-09T08:23:15.646Z,5.32
2024-05-09T08:25:42.333Z,5.25
2024-05-09T08:28:09.251Z,5.03
2024-05-09T08:30:37.585Z,5.40
2024-05-09T08:33:06.708Z,6.70
2024-05-09T08:35:34.562Z,7.50
2024-05-09T08:38:03.167Z,6.82
2024-05-09T08:40:35.441Z,6.85
2024-05-09T08:43:07.653Z,7.03
2024-05-09T08:45:35.814Z,8.25
2024-05-09T08:48:05.857Z,8.60
2024-05-09T08:50:38.701Z,7.78
2024-05-09T08:53:07.188Z,6.82
2024-05-09T08:55:33.929Z,6.80
2024-05-09T08:58:02.259Z,7.65
2024-05-09T09:00:36.516Z,7.18
2024-05-09T09:03:08.978Z,7.13
2024-05-09T09:05:39.540Z,7.25
2024-05-09T09:08:08.245Z,7.30
2024-05-09T09:10:35.602Z,7.47
2024-05-09T09:13:04.657Z,7.05
2024-05-09T09:15:31.870Z,6.30
2024-05-09T09:18:00.436Z,6.43
2024-05-09T09:20:35.325Z,7.33
2024-05-09T09:23:03.542Z,7.30
2024-05-09T09:25:30.525Z,7.22
2024-05-09T09:27:58.537Z,6.97
2024-05-09T09:30:35.240Z,7.10
2024-05-09T09:33:05.855Z,6.83
2024-05-09T09:35:32.838Z,6.97
2024-05-09T09:38:03.131Z,6.93
2024-05-09T09:40:38.631Z,7.50
2024-05-09T09:43:30.483Z,7.28
2024-05-09T09:45:59.714Z,7.10
2024-05-09T09:48:27.308Z,6.70
2024-05-09T09:50:55.253Z,6.80
2024-05-09T09:53:23.247Z,7.53
2024-05-09T09:55:52.158Z,7.03
2024-05-09T09:58:19.254Z,6.60
2024-05-09T10:00:46.168Z,7.13
2024-05-09T10:03:13.415Z,6.95
2024-05-09T10:05:42.966Z,6.55
2024-05-09T10:08:12.779Z,6.50
2024-05-09T10:10:40.132Z,5.53
2024-05-09T10:13:08.344Z,5.70
2024-05-09T10:15:48.478Z,5.63
2024-05-09T10:18:15.543Z,5.43
2024-05-09T10:20:46.430Z,5.63
2024-05-09T10:23:43.814Z,5.30
2024-05-09T10:26:10.419Z,5.18
2024-05-09T10:28:42.632Z,5.35
2024-05-09T10:31:14.781Z,5.35
2024-05-09T10:33:50.868Z,4.47
2024-05-09T10:36:21.996Z,5.10
2024-05-09T10:38:50.032Z,5.97
2024-05-09T10:41:17.485Z,5.78
2024-05-09T10:43:44.169Z,5.15
2024-05-09T10:46:11.613Z,5.38
2024-05-09T10:48:39.588Z,4.90
2024-05-09T10:51:06.407Z,5.38
2024-05-09T10:53:40.449Z,6.55
2024-05-09T10:56:07.198Z,5.10
2024-05-09T10:58:33.703Z,4.65
2024-05-09T11:01:02.356Z,4.60
2024-05-09T11:03:31.067Z,6.32
2024-05-09T11:05:57.941Z,7.35
2024-05-09T11:08:24.986Z,7.18
2024-05-09T11:10:52.853Z,7.30
2024-05-09T11:13:30.257Z,5.90
2024-05-09T11:15:57.354Z,5.95
2024-05-09T11:18:26.769Z,5.88
2024-05-09T11:20:56.249Z,6.40
2024-05-09T11:23:30.072Z,6.55
2024-05-09T11:25:58.347Z,5.40
2024-05-09T11:28:26.962Z,6.18
2024-05-09T11:31:05.264Z,5.90
2024-05-09T11:33:31.990Z,6.10
2024-05-09T11:35:58.728Z,6.97
2024-05-09T11:38:25.299Z,6.97
2024-05-09T11:40:51.894Z,7.57
2024-05-09T11:43:18.592Z,7.10
2024-05-09T11:45:45.184Z,6.95
2024-05-09T11:48:11.970Z,7.25
2024-05-09T11:50:39.319Z,7.70
2024-05-09T11:53:06.635Z,7.20
2024-05-09T11:55:36.372Z,6.50
2024-05-09T11:58:04.241Z,7.88
2024-05-09T12:00:36.667Z,7.53
2024-05-09T12:03:05.637Z,6.73
2024-05-09T12:05:34.014Z,7.13
2024-05-09T12:08:01.401Z,8.43
2024-05-09T12:10:32.931Z,7.80
2024-05-09T12:13:02.221Z,8.07
2024-05-09T12:15:29.022Z,7.70
2024-05-09T12:17:58.340Z,7.55
2024-05-09T12:20:35.135Z,7.88
2024-05-09T12:23:05.187Z,7.85
2024-05-09T12:25:34.036Z,7.68
2024-05-09T12:28:01.093Z,7.50
2024-05-09T12:30:36.123Z,7.63
2024-05-09T12:33:07.958Z,7.55
2024-05-09T12:35:34.860Z,7.68
2024-05-09T12:38:01.518Z,8.55
2024-05-09T12:40:35.558Z,7.57
2024-05-09T12:43:06.589Z,8.02
2024-05-09T12:45:33.618Z,8.30
2024-05-09T12:48:00.718Z,8.43
2024-05-09T12:50:32.543Z,8.25
2024-05-09T12:53:01.452Z,7.80
2024-05-09T12:55:29.832Z,8.32
2024-05-09T12:57:58.947Z,9.15
2024-05-09T13:00:31.660Z,8.85
2024-05-09T13:03:01.101Z,8.60
2024-05-09T13:05:28.291Z,8.37
2024-05-09T13:07:56.692Z,8.98
2024-05-09T13:10:31.049Z,9.30
2024-05-09T13:13:00.268Z,8.07
2024-05-09T13:15:27.496Z,8.10
2024-05-09T13:17:55.813Z,8.30
2024-05-09T13:20:31.212Z,8.55
2024-05-09T13:23:01.720Z,8.45
2024-05-09T13:25:28.381Z,8.50
2024-05-09T13:27:55.359Z,8.90
2024-05-09T13:30:29.495Z,8.20
2024-05-09T13:33:05.164Z,7.53
2024-05-09T13:35:32.252Z,8.90
2024-05-09T13:37:59.065Z,7.95
2024-05-09T13:40:32.690Z,8.35
2024-05-09T13:43:02.072Z,8.47
2024-05-09T13:45:29.120Z,8.20
2024-05-09T13:47:55.928Z,8.52
2024-05-09T13:50:31.298Z,8.85
2024-05-09T13:53:02.083Z,8.00
2024-05-09T13:55:28.751Z,8.37
2024-05-09T13:57:55.719Z,8.63
2024-05-09T14:00:32.245Z,8.73
2024-05-09T14:03:09.132Z,7.15
2024-05-09T14:05:36.038Z,8.77
2024-05-09T14:08:03.265Z,8.20
2024-05-09T14:10:31.861Z,8.50
2024-05-09T14:13:00.047Z,8.95
2024-05-09T14:15:26.994Z,8.95
2024-05-09T14:17:54.503Z,8.30
2024-05-09T14:20:30.324Z,7.50
2024-05-09T14:22:59.284Z,8.18
2024-05-09T14:25:28.282Z,8.77
2024-05-09T14:27:55.366Z,9.55
2024-05-09T14:30:30.602Z,8.73
2024-05-09T14:33:03.659Z,8.83
2024-05-09T14:35:30.403Z,8.40
2024-05-09T14:37:57.022Z,8.32
2024-05-09T14:42:53.075Z,9.25
2024-05-09T14:45:19.662Z,8.83
2024-05-09T14:47:46.426Z,8.30
2024-05-09T14:50:19.598Z,8.60
2024-05-09T14:52:54.054Z,9.05
2024-05-09T14:55:20.600Z,8.68
2024-05-09T14:57:47.247Z,9.17
2024-05-09T15:00:21.096Z,8.88
2024-05-09T15:02:52.948Z,9.50
2024-05-09T15:05:19.679Z,9.32
2024-05-09T15:07:46.344Z,9.07
2024-05-09T15:10:20.380Z,8.83
2024-05-09T15:12:50.577Z,9.18
2024-05-09T15:15:17.714Z,8.98
2024-05-09T15:17:44.865Z,8.65
2024-05-09T15:20:17.141Z,9.13
2024-05-09T15:22:46.908Z,9.23
2024-05-09T15:25:13.850Z,8.90
2024-05-09T15:27:40.584Z,9.00
2024-05-09T15:30:10.699Z,8.80
2024-05-09T15:32:37.632Z,8.60
2024-05-09T15:35:05.463Z,10.20
2024-05-09T15:37:32.377Z,10.80
2024-05-09T15:39:59.027Z,11.23
2024-05-09T15:42:25.594Z,12.13
2024-05-09T15:44:53.045Z,11.77
2024-05-09T15:47:20.185Z,12.47
2024-05-09T15:49:47.673Z,12.80
2024-05-09T15:52:17.918Z,12.18
2024-05-09T15:54:44.560Z,11.85
2024-05-09T15:57:11.972Z,12.55
2024-05-09T15:59:38.601Z,12.53
2024-05-09T16:02:05.907Z,13.02
2024-05-09T16:04:32.706Z,10.60
2024-05-09T16:06:59.459Z,11.65
2024-05-09T16:09:26.115Z,11.98
2024-05-09T16:11:52.830Z,11.13
2024-05-09T16:14:19.444Z,14.15
2024-05-09T16:16:46.521Z,13.80
2024-05-09T16:19:13.642Z,13.48
2024-05-09T16:21:40.327Z,13.30
2024-05-09T16:24:06.945Z,12.70
2024-05-09T16:26:33.602Z,13.68
2024-05-09T16:29:00.140Z,14.10
2024-05-09T16:31:26.924Z,13.32
2024-05-09T16:33:53.808Z,12.02
2024-05-09T16:36:20.584Z,12.43
2024-05-09T16:38:47.136Z,12.82
2024-05-09T16:41:15.408Z,14.30
2024-05-09T16:43:41.953Z,17.10
2024-05-09T16:46:08.981Z,16.70
2024-05-09T16:48:36.621Z,14.00
2024-05-09T16:51:03.288Z,14.63
2024-05-09T16:53:29.818Z,14.75
2024-05-09T16:55:56.405Z,15.13
2024-05-09T16:58:23.651Z,15.07
2024-05-09T17:00:50.826Z,15.57
2024-05-09T17:03:17.718Z,14.75
2024-05-09T17:05:46.913Z,14.75
2024-05-09T17:08:16.264Z,15.52
2024-05-09T17:10:42.999Z,15.07
2024-05-09T17:13:10.180Z,16.13
2024-05-09T17:15:37.544Z,31.58
2024-05-09T17:18:06.428Z,37.58
2024-05-09T17:20:36.242Z,20.10
2024-05-09T17:23:06.100Z,14.93
2024-05-09T17:25:33.287Z,14.53
2024-05-09T17:28:06.396Z,14.48
2024-05-09T17:30:36.683Z,14.93
2024-05-09T17:33:06.501Z,14.73
2024-05-09T17:35:33.275Z,14.18
2024-05-09T17:38:01.510Z,13.27
2024-05-09T17:40:33.490Z,13.70
2024-05-09T17:43:03.348Z,14.38
2024-05-09T17:45:30.575Z,14.00
2024-05-09T17:47:57.662Z,14.45
2024-05-09T17:50:31.211Z,12.73
2024-05-09T17:53:01.945Z,13.55
2024-05-09T17:55:28.850Z,14.25
2024-05-09T17:57:55.616Z,14.57
2024-05-09T18:00:32.835Z,14.48
2024-05-09T18:03:06.195Z,13.27
2024-05-09T18:05:33.195Z,14.52
2024-05-09T18:08:00.067Z,14.70
2024-05-09T18:10:33.704Z,13.52
2024-05-09T18:13:05.490Z,15.48
2024-05-09T18:15:32.565Z,14.50
2024-05-09T18:17:59.562Z,14.52
2024-05-09T18:20:32.990Z,14.35
2024-05-09T18:23:07.779Z,14.38
2024-05-09T18:25:34.421Z,13.13
2024-05-09T18:28:04.200Z,13.80
2024-05-09T18:30:34.552Z,14.05
2024-05-09T18:33:03.439Z,13.75
2024-05-09T18:35:30.227Z,13.52
2024-05-09T18:37:56.879Z,13.25
2024-05-09T18:42:52.907Z,13.98
2024-05-09T18:45:19.471Z,14.32
2024-05-09T18:47:46.285Z,14.35
2024-05-09T18:50:20.421Z,14.68
2024-05-09T18:52:54.252Z,14.67
2024-05-09T18:55:20.819Z,14.48
2024-05-09T18:57:47.455Z,14.73
2024-05-09T19:00:26.628Z,13.90
2024-05-09T19:03:00.580Z,14.98
2024-05-09T19:05:27.629Z,14.07
2024-05-09T19:07:54.433Z,13.60
2024-05-09T19:10:23.031Z,14.50
2024-05-09T19:12:52.845Z,15.00
2024-05-09T19:15:19.427Z,15.57
2024-05-09T19:17:47.299Z,14.57
2024-05-09T19:20:24.811Z,14.27
2024-05-09T19:22:55.819Z,14.65
2024-05-09T19:25:22.337Z,14.73
2024-05-09T19:27:49.028Z,15.23
2024-05-09T19:30:25.065Z,14.47
2024-05-09T19:33:00.626Z,13.40
2024-05-09T19:35:27.261Z,14.73
2024-05-09T19:37:53.883Z,15.10
2024-05-09T19:40:28.611Z,15.38
2024-05-09T19:42:58.459Z,14.43
2024-05-09T19:45:25.152Z,15.88
2024-05-09T19:47:52.037Z,15.07
2024-05-09T19:50:26.683Z,15.68
2024-05-09T19:52:59.476Z,15.63
2024-05-09T19:55:26.265Z,15.13
2024-05-09T19:57:52.928Z,15.23
2024-05-09T20:00:26.174Z,15.65
2024-05-09T20:02:56.346Z,15.52
2024-05-09T20:05:23.560Z,15.48
2024-05-09T20:07:50.269Z,15.67
2024-05-09T20:10:23.688Z,16.00
2024-05-09T20:12:53.831Z,16.70
2024-05-09T20:15:20.470Z,18.33
2024-05-09T20:17:47.175Z,19.42
2024-05-09T20:20:24.503Z,20.13
2024-05-09T20:22:59.734Z,18.52
2024-05-09T20:25:26.321Z,17.77
2024-05-09T20:27:52.953Z,18.35
2024-05-09T20:30:28.884Z,18.27
2024-05-09T20:32:59.405Z,16.60
2024-05-09T20:35:26.667Z,17.50
2024-05-09T20:37:53.332Z,18.38
2024-05-09T20:40:28.258Z,16.70
2024-05-09T20:42:58.736Z,16.90
2024-05-09T20:45:25.428Z,17.97
2024-05-09T20:47:52.164Z,20.42
2024-05-09T20:50:28.028Z,22.38
2024-05-09T20:53:02.562Z,23.10
2024-05-09T20:55:30.029Z,20.42
2024-05-09T20:57:57.049Z,18.70
2024-05-09T21:00:30.291Z,19.58
2024-05-09T21:03:06.300Z,19.55
2024-05-09T21:05:33.722Z,19.40
2024-05-09T21:08:00.658Z,20.20
2024-05-09T21:10:31.541Z,20.83
2024-05-09T21:12:59.525Z,20.45
2024-05-09T21:15:26.054Z,20.40
2024-05-09T21:17:52.588Z,20.55
2024-05-09T21:20:24.286Z,21.30
2024-05-09T21:22:57.492Z,20.43
2024-05-09T21:25:24.028Z,20.92
2024-05-09T21:27:50.679Z,21.98
2024-05-09T21:30:26.745Z,21.60
2024-05-09T21:32:59.348Z,21.85
2024-05-09T21:35:25.959Z,21.13
2024-05-09T21:37:52.510Z,21.50
2024-05-09T21:40:27.232Z,20.75
2024-05-09T21:43:00.762Z,22.15
2024-05-09T21:45:27.640Z,21.10
2024-05-09T21:47:54.414Z,21.70
2024-05-09T21:50:27.639Z,22.23
2024-05-09T21:52:58.873Z,22.33
2024-05-09T21:55:25.502Z,22.58
2024-05-09T21:57:52.326Z,21.02
2024-05-09T22:00:28.656Z,22.07
2024-05-09T22:03:02.051Z,21.67
2024-05-09T22:05:28.890Z,21.80
2024-05-09T22:07:55.527Z,22.15
2024-05-09T22:10:26.535Z,21.35
2024-05-09T22:12:59.266Z,21.47
2024-05-09T22:15:25.924Z,22.15
2024-05-09T22:17:52.593Z,22.20
2024-05-09T22:20:26.024Z,22.00
2024-05-09T22:23:00.746Z,22.20
2024-05-09T22:25:29.714Z,21.43
2024-05-09T22:27:57.212Z,22.17
2024-05-09T22:30:31.122Z,22.25
2024-05-09T22:33:01.628Z,22.30
2024-05-09T22:35:28.178Z,22.02
2024-05-09T22:37:55.235Z,22.57
2024-05-09T22:40:29.511Z,21.95
2024-05-09T22:43:05.610Z,23.23
2024-05-09T22:45:32.476Z,21.77
2024-05-09T22:47:59.350Z,21.25
2024-05-09T22:50:27.107Z,22.47
2024-05-09T22:52:58.899Z,22.55
2024-05-09T22:55:25.420Z,23.17
2024-05-09T22:57:52.103Z,21.58
2024-05-09T23:00:22.037Z,21.15
2024-05-09T23:02:55.293Z,20.60
2024-05-09T23:05:22.104Z,21.10
2024-05-09T23:07:48.677Z,21.02
2024-05-09T23:10:21.332Z,20.45
2024-05-09T23:12:54.886Z,21.63
2024-05-09T23:15:21.492Z,21.20
2024-05-09T23:17:48.130Z,21.30
2024-05-09T23:20:17.799Z,20.35
2024-05-09T23:22:48.002Z,20.15
2024-05-09T23:25:14.591Z,21.65
2024-05-09T23:27:41.623Z,20.93
2024-05-09T23:30:12.148Z,21.60
2024-05-09T23:32:39.103Z,21.77
2024-05-09T23:35:06.088Z,21.40
2024-05-09T23:37:32.664Z,20.17
2024-05-09T23:39:59.272Z,20.37
2024-05-09T23:42:25.914Z,21.15
2024-05-09T23:44:53.561Z,20.58
2024-05-09T23:47:20.094Z,20.85
2024-05-09T23:49:46.704Z,21.20
2024-05-09T23:52:13.377Z,21.27
2024-05-09T23:54:40.103Z,21.55
2024-05-09T23:57:06.637Z,22.00
2024-05-09T23:59:33.185Z,21.08
